createdAt,value
2022-10-26T00:20:12.083Z,14.13
2022-10-26T00:22:41.680Z,13.00
2022-10-26T00:27:52.477Z,13.10
2022-10-26T00:30:22.618Z,13.03
2022-10-26T00:44:53.468Z,13.33
2022-10-26T00:47:26.036Z,13.67
2022-10-26T00:53:01.010Z,12.50
2022-10-26T01:01:28.952Z,13.10
2022-10-26T01:09:48.824Z,13.30
2022-10-26T01:18:11.890Z,13.13
2022-10-26T01:20:58.730Z,13.77
2022-10-26T01:23:41.604Z,13.40
2022-10-26T01:32:57.911Z,13.23
2022-10-26T01:36:00.866Z,14.10
2022-10-26T01:39:03.445Z,13.53
2022-10-26T01:56:33.755Z,14.23
2022-10-26T02:02:38.119Z,14.53
2022-10-26T02:05:22.563Z,13.97
2022-10-26T02:35:43.621Z,14.87
2022-10-26T02:38:15.488Z,14.97
2022-10-26T02:40:53.145Z,15.87
2022-10-26T02:43:24.779Z,15.03
2022-10-26T02:51:56.013Z,14.60
2022-10-26T02:57:32.685Z,14.20
2022-10-26T03:03:09.869Z,13.87
2022-10-26T03:05:45.910Z,14.30
2022-10-26T03:08:17.130Z,14.10
2022-10-26T03:22:51.011Z,14.00
2022-10-26T03:25:22.190Z,15.07
2022-10-26T03:36:59.606Z,15.40
2022-10-26T03:39:29.998Z,16.27
2022-10-26T03:44:38.086Z,14.40
2022-10-26T03:49:53.540Z,13.83
2022-10-26T03:52:26.615Z,14.97
2022-10-26T03:55:02.932Z,15.00
2022-10-26T04:00:38.351Z,14.53
2022-10-26T04:09:17.826Z,15.27
2022-10-26T04:11:48.167Z,14.87
2022-10-26T04:14:23.040Z,15.53
2022-10-26T04:16:55.395Z,15.90
2022-10-26T04:19:27.106Z,14.73
2022-10-26T04:21:56.362Z,15.57
2022-10-26T04:24:26.032Z,16.67
2022-10-26T04:27:03.850Z,16.07
2022-10-26T04:29:38.273Z,14.77
2022-10-26T04:41:40.198Z,16.17
2022-10-26T04:46:48.046Z,15.03
2022-10-26T04:49:49.541Z,15.80
2022-10-26T04:52:26.158Z,15.57
2022-10-26T04:57:41.713Z,16.07
2022-10-26T05:00:17.470Z,14.90
2022-10-26T05:08:33.932Z,15.50
2022-10-26T05:11:12.951Z,24.70
2022-10-26T05:30:42.270Z,16.43
2022-10-26T05:33:13.980Z,15.33
2022-10-26T05:35:44.781Z,23.17
2022-10-26T05:38:19.284Z,18.00
2022-10-26T05:40:55.195Z,18.30
2022-10-26T05:43:25.188Z,17.20
2022-10-26T05:51:37.781Z,17.10
2022-10-26T05:54:11.501Z,16.63
2022-10-26T05:56:43.075Z,18.03
2022-10-26T05:59:22.696Z,16.07
2022-10-26T06:04:48.559Z,17.70
2022-10-26T06:07:19.898Z,16.73
2022-10-26T06:09:51.519Z,15.93
2022-10-26T06:12:20.891Z,16.07
2022-10-26T06:14:50.446Z,15.83
2022-10-26T06:17:30.340Z,14.13
2022-10-26T06:20:25.222Z,14.33
2022-10-26T06:23:12.400Z,15.30
2022-10-26T06:25:58.521Z,13.80
2022-10-26T06:28:46.203Z,13.03
2022-10-26T06:31:18.090Z,13.90
2022-10-26T06:33:49.524Z,13.47
2022-10-26T06:36:27.571Z,14.13
2022-10-26T06:39:05.663Z,14.13
2022-10-26T06:41:36.133Z,12.53
2022-10-26T06:44:06.512Z,13.03
2022-10-26T06:47:06.262Z,13.70
2022-10-26T06:52:47.702Z,14.20
2022-10-26T06:58:23.430Z,14.37
2022-10-26T07:10:35.106Z,15.03
2022-10-26T07:13:07.031Z,13.60
2022-10-26T07:24:18.900Z,13.97
2022-10-26T07:26:53.949Z,14.03
2022-10-26T07:29:49.268Z,14.67
2022-10-26T07:32:23.735Z,14.63
2022-10-26T07:34:55.730Z,13.60
2022-10-26T07:37:38.077Z,14.47
2022-10-26T07:40:09.442Z,14.23
2022-10-26T07:42:41.985Z,13.83
2022-10-26T07:45:17.812Z,13.80
2022-10-26T07:47:50.650Z,14.40
2022-10-26T07:50:29.654Z,13.97
2022-10-26T07:53:04.885Z,14.73
2022-10-26T07:55:39.032Z,16.00
2022-10-26T07:58:13.190Z,14.40
2022-10-26T08:00:45.684Z,14.87
2022-10-26T08:03:16.230Z,13.83
2022-10-26T08:05:56.504Z,12.03
2022-10-26T08:08:26.740Z,12.67
2022-10-26T08:10:57.653Z,13.17
2022-10-26T08:13:37.533Z,13.10
2022-10-26T08:16:07.805Z,12.17
2022-10-26T08:18:36.362Z,12.97
2022-10-26T08:21:21.877Z,13.07
2022-10-26T08:24:03.778Z,12.80
2022-10-26T08:26:33.954Z,11.77
2022-10-26T08:29:04.926Z,12.40
2022-10-26T08:31:35.341Z,13.17
2022-10-26T08:34:07.921Z,11.53
2022-10-26T08:39:32.502Z,12.07
2022-10-26T08:42:15.520Z,11.53
2022-10-26T08:45:10.166Z,11.83
2022-10-26T08:47:52.412Z,11.17
2022-10-26T08:50:28.510Z,11.63
2022-10-26T08:53:11.250Z,10.87
2022-10-26T08:55:56.913Z,11.10
2022-10-26T09:01:20.308Z,10.20
2022-10-26T09:03:49.740Z,10.90
2022-10-26T09:06:21.910Z,10.43
2022-10-26T09:14:44.669Z,9.43
2022-10-26T09:17:45.598Z,10.00
2022-10-26T09:20:27.778Z,9.50
2022-10-26T09:23:22.168Z,9.93
2022-10-26T09:26:02.438Z,10.40
2022-10-26T09:28:38.061Z,10.60
2022-10-26T09:31:14.548Z,9.80
2022-10-26T09:33:54.240Z,10.60
2022-10-26T09:36:53.436Z,10.40
2022-10-26T09:39:44.642Z,9.93
2022-10-26T09:42:42.868Z,10.77
2022-10-26T10:04:27.084Z,7.40
2022-10-26T10:07:18.581Z,7.90
2022-10-26T10:10:21.192Z,7.47
2022-10-26T10:12:54.868Z,6.87
2022-10-26T10:18:23.531Z,6.23
2022-10-26T10:23:53.982Z,4.97
2022-10-26T10:26:31.857Z,5.10
2022-10-26T10:29:07.549Z,4.57
2022-10-26T10:31:50.849Z,4.73
2022-10-26T10:34:25.762Z,4.60
2022-10-26T10:42:38.898Z,4.90
2022-10-26T10:54:40.565Z,4.70
2022-10-26T10:57:41.501Z,4.40
2022-10-26T11:00:15.766Z,4.60
2022-10-26T11:06:24.708Z,4.40
2022-10-26T11:24:37.853Z,2.87
2022-10-26T11:45:38.643Z,3.57
2022-10-26T14:49:13.107Z,2.80
